Time;durP1;ratioP1;P1;durP2;ratioP2;P2;SDS_P1;SDS_P2;PMS_P1;PMS_P2;Temp;Humidity;BMP_temperature;BMP_pressure;BME280_temperature;BME280_humidity;BME280_pressure;Samples;Min_cycle;Max_cycle;Signal;HPM_P1;HPM_P2
2021/04/17 00:01:11;;;;;;;5.23;3.10;;;4.10;99.90;;;;;;5008905;28;20250;-52
2021/04/17 00:03:37;;;;;;;5.10;3.10;;;4.10;99.90;;;;;;5018537;28;20782;-54
2021/04/17 00:06:04;;;;;;;6.90;3.20;;;4.10;99.90;;;;;;5015043;28;20747;-58
2021/04/17 00:08:30;;;;;;;6.20;2.77;;;4.00;99.90;;;;;;5022526;28;20211;-54
2021/04/17 00:10:57;;;;;;;5.87;3.23;;;4.00;99.90;;;;;;5021219;28;20232;-58
2021/04/17 00:13:23;;;;;;;7.80;3.00;;;4.00;99.90;;;;;;5016382;28;20281;-50
2021/04/17 00:15:49;;;;;;;4.63;2.73;;;3.90;99.90;;;;;;5010606;28;20255;-55
2021/04/17 00:18:15;;;;;;;7.33;2.97;;;3.90;99.90;;;;;;5019910;28;20770;-53
2021/04/17 00:20:42;;;;;;;2.93;2.50;;;3.90;99.90;;;;;;5018190;28;20223;-51
2021/04/17 00:23:08;;;;;;;6.70;2.53;;;3.90;99.90;;;;;;5018957;28;20214;-55
2021/04/17 00:25:34;;;;;;;8.67;2.97;;;3.90;99.90;;;;;;5023302;28;20546;-52
2021/04/17 00:28:01;;;;;;;6.17;2.47;;;3.80;99.90;;;;;;5014705;28;20285;-58
2021/04/17 00:30:27;;;;;;;5.43;2.53;;;3.80;99.90;;;;;;5010370;28;20233;-53
2021/04/17 00:32:53;;;;;;;2.43;1.93;;;3.80;99.90;;;;;;5021367;28;20191;-57
2021/04/17 00:35:19;;;;;;;4.80;2.53;;;3.80;99.90;;;;;;5016291;28;20992;-49
2021/04/17 00:37:45;;;;;;;5.03;2.37;;;3.80;99.90;;;;;;5021031;28;20670;-53
2021/04/17 00:40:12;;;;;;;7.03;2.53;;;3.80;99.90;;;;;;5017967;28;20929;-52
2021/04/17 00:42:38;;;;;;;4.07;2.40;;;3.80;99.90;;;;;;5022814;28;20226;-52
2021/04/17 00:45:07;;;;;;;3.63;2.00;;;3.80;99.90;;;;;;4997690;28;20278;-58
2021/04/17 00:47:34;;;;;;;2.70;1.57;;;3.80;99.90;;;;;;5027815;28;20676;-51
2021/04/17 00:50:01;;;;;;;3.53;2.40;;;3.80;99.90;;;;;;5019375;28;20219;-57
2021/04/17 00:52:27;;;;;;;4.27;2.00;;;3.90;99.90;;;;;;5011432;28;20638;-55
2021/04/17 00:54:55;;;;;;;6.53;2.10;;;3.90;99.90;;;;;;5019799;28;20233;-58
2021/04/17 00:57:22;;;;;;;2.87;2.10;;;3.90;99.90;;;;;;5019879;28;20195;-56
2021/04/17 00:59:48;;;;;;;6.77;1.90;;;3.90;99.90;;;;;;5012125;28;20729;-57
2021/04/17 01:02:18;;;;;;;3.90;2.80;;;3.90;99.90;;;;;;5009498;28;20929;-51
2021/04/17 01:04:49;;;;;;;5.80;2.30;;;3.90;99.90;;;;;;5017280;28;20218;-52
2021/04/17 01:07:21;;;;;;;2.80;2.03;;;3.90;99.90;;;;;;5014123;28;20206;-52
2021/04/17 01:09:53;;;;;;;4.77;1.87;;;3.90;99.90;;;;;;5025458;28;20222;-56
2021/04/17 01:12:22;;;;;;;6.17;2.23;;;3.90;99.90;;;;;;5015144;28;20298;-54
2021/04/17 01:14:51;;;;;;;3.83;1.90;;;3.80;99.90;;;;;;5016659;28;20203;-57
2021/04/17 01:17:20;;;;;;;5.70;2.20;;;3.90;99.90;;;;;;5009370;28;20211;-51
2021/04/17 01:19:55;;;;;;;7.03;2.00;;;3.90;99.90;;;;;;5020680;28;20278;-57
2021/04/17 01:22:24;;;;;;;5.93;1.90;;;3.90;99.90;;;;;;5021104;28;20243;-52
2021/04/17 01:25:00;;;;;;;3.90;2.20;;;3.90;99.90;;;;;;5015579;28;20646;-56
2021/04/17 01:27:27;;;;;;;4.40;2.20;;;3.90;99.90;;;;;;5017164;28;20234;-52
2021/04/17 01:29:55;;;;;;;5.83;1.83;;;3.90;99.90;;;;;;5017394;28;20635;-57
2021/04/17 01:32:21;;;;;;;5.73;1.80;;;3.90;99.90;;;;;;5010051;28;20210;-52
2021/04/17 01:34:50;;;;;;;4.97;1.60;;;3.90;99.90;;;;;;5016647;28;20195;-57
2021/04/17 01:37:17;;;;;;;4.87;2.00;;;3.90;99.90;;;;;;5019422;28;20214;-51
2021/04/17 01:39:44;;;;;;;3.67;1.87;;;3.90;99.90;;;;;;5017480;28;20227;-57
2021/04/17 01:42:14;;;;;;;4.77;1.83;;;3.90;99.90;;;;;;5018494;28;20211;-54
2021/04/17 01:44:46;;;;;;;1.93;1.73;;;3.90;99.90;;;;;;5024851;28;20206;-56
2021/04/17 01:47:15;;;;;;;3.83;1.40;;;3.90;99.90;;;;;;5015186;28;20200;-54
2021/04/17 01:49:43;;;;;;;4.10;1.60;;;3.90;99.90;;;;;;5008629;28;20238;-53
2021/04/17 01:52:12;;;;;;;6.77;1.97;;;3.90;99.90;;;;;;5013284;28;20198;-54
2021/04/17 01:54:43;;;;;;;2.47;1.60;;;3.90;99.90;;;;;;5005695;28;20217;-54
2021/04/17 01:57:11;;;;;;;5.63;2.10;;;3.90;99.90;;;;;;5018932;28;20279;-50
2021/04/17 01:59:37;;;;;;;4.07;1.93;;;3.90;99.90;;;;;;5019030;28;20302;-54
2021/04/17 02:02:04;;;;;;;3.20;2.33;;;3.90;99.90;;;;;;5013026;28;20207;-56
2021/04/17 02:04:32;;;;;;;2.63;1.90;;;4.00;99.90;;;;;;5010233;28;20709;-55
2021/04/17 02:06:58;;;;;;;4.60;1.70;;;4.00;99.90;;;;;;5011185;28;20235;-58
2021/04/17 02:09:25;;;;;;;2.77;1.97;;;4.00;99.90;;;;;;5021406;28;20299;-51
2021/04/17 02:11:51;;;;;;;2.90;1.57;;;4.00;99.90;;;;;;5015211;28;20213;-57
2021/04/17 02:14:17;;;;;;;3.00;1.70;;;4.00;99.90;;;;;;5020554;28;20200;-52
2021/04/17 02:16:48;;;;;;;2.90;1.73;;;4.10;99.90;;;;;;5020062;28;20680;-57
2021/04/17 02:19:23;;;;;;;2.37;1.57;;;4.10;99.90;;;;;;5004465;28;20219;-55
2021/04/17 02:21:51;;;;;;;4.00;1.87;;;4.10;99.90;;;;;;5011649;28;20212;-57
2021/04/17 02:24:18;;;;;;;3.50;2.00;;;4.10;99.90;;;;;;5015046;28;20215;-52
2021/04/17 02:26:44;;;;;;;4.33;1.50;;;4.10;99.90;;;;;;5017993;28;20704;-56
2021/04/17 02:29:10;;;;;;;4.67;1.87;;;4.20;99.90;;;;;;5017848;28;20197;-52
2021/04/17 02:31:37;;;;;;;4.97;1.63;;;4.20;99.90;;;;;;5020615;28;20211;-49
2021/04/17 02:34:04;;;;;;;1.60;1.37;;;4.20;99.90;;;;;;5016442;28;20203;-51
2021/04/17 02:36:31;;;;;;;1.93;1.30;;;4.30;99.90;;;;;;5016885;28;20207;-52
2021/04/17 02:38:57;;;;;;;4.10;1.90;;;4.30;99.90;;;;;;5015204;28;20212;-56
2021/04/17 02:41:24;;;;;;;2.87;2.00;;;4.30;99.90;;;;;;5020507;28;20245;-52
2021/04/17 02:43:50;;;;;;;2.40;1.87;;;4.30;99.90;;;;;;5021075;28;20715;-58
2021/04/17 02:46:16;;;;;;;3.27;1.80;;;4.30;99.90;;;;;;5023075;28;20202;-52
2021/04/17 02:48:42;;;;;;;2.30;1.80;;;4.30;99.90;;;;;;5019769;28;20219;-57
2021/04/17 02:51:08;;;;;;;2.37;1.77;;;4.30;99.90;;;;;;5009642;28;20357;-57
2021/04/17 02:53:36;;;;;;;4.47;1.67;;;4.30;99.90;;;;;;5024491;28;20200;-57
2021/04/17 02:56:02;;;;;;;3.87;1.87;;;4.30;99.90;;;;;;5009636;28;20192;-55
2021/04/17 02:58:29;;;;;;;2.20;1.67;;;4.30;99.90;;;;;;5014016;28;20206;-54
2021/04/17 03:00:55;;;;;;;4.83;2.00;;;4.30;99.90;;;;;;5021727;28;20216;-59
2021/04/17 03:03:21;;;;;;;4.63;2.03;;;4.30;99.90;;;;;;5018699;28;20223;-53
2021/04/17 03:05:47;;;;;;;2.80;1.80;;;4.30;99.90;;;;;;5023637;28;20200;-59
2021/04/17 03:08:13;;;;;;;2.90;1.63;;;4.40;99.90;;;;;;5013686;28;20941;-52
2021/04/17 03:10:40;;;;;;;4.27;1.80;;;4.30;99.90;;;;;;5023027;28;20631;-51
2021/04/17 03:13:07;;;;;;;1.83;1.63;;;4.40;99.90;;;;;;5016360;28;20632;-54
2021/04/17 03:15:33;;;;;;;2.87;2.03;;;4.40;99.90;;;;;;5024397;28;20609;-56
2021/04/17 03:17:59;;;;;;;2.57;1.87;;;4.30;99.90;;;;;;5015729;28;20215;-59
2021/04/17 03:20:26;;;;;;;3.23;2.20;;;4.40;99.90;;;;;;5019385;28;20227;-55
2021/04/17 03:22:52;;;;;;;3.30;1.67;;;4.30;99.90;;;;;;5014223;28;20227;-58
2021/04/17 03:25:19;;;;;;;7.00;2.40;;;4.40;99.90;;;;;;5008110;28;20215;-53
2021/04/17 03:27:46;;;;;;;5.93;1.90;;;4.30;99.90;;;;;;5016569;28;20215;-57
2021/04/17 03:30:15;;;;;;;1.63;1.40;;;4.30;99.90;;;;;;5017668;28;20831;-55
2021/04/17 03:32:42;;;;;;;2.30;1.63;;;4.30;99.90;;;;;;5023132;28;20196;-59
2021/04/17 03:35:11;;;;;;;2.77;1.97;;;4.30;99.90;;;;;;5010507;28;20358;-57
2021/04/17 03:37:38;;;;;;;2.17;1.70;;;4.20;99.90;;;;;;5022829;28;20340;-54
2021/04/17 03:40:08;;;;;;;3.80;2.10;;;4.20;99.90;;;;;;5011512;28;20212;-56
2021/04/17 03:42:34;;;;;;;2.47;1.93;;;4.20;99.90;;;;;;5019020;28;20219;-52
2021/04/17 03:45:01;;;;;;;4.17;2.00;;;4.20;99.90;;;;;;5015678;28;20207;-58
2021/04/17 03:47:27;;;;;;;4.07;2.23;;;4.10;99.90;;;;;;5022471;28;20204;-51
2021/04/17 03:49:53;;;;;;;3.70;2.07;;;4.10;99.90;;;;;;5018609;28;20212;-58
2021/04/17 03:52:21;;;;;;;4.30;2.30;;;4.10;99.90;;;;;;5020686;28;20203;-52
2021/04/17 03:54:47;;;;;;;5.00;1.93;;;4.00;99.90;;;;;;5018519;28;20231;-58
2021/04/17 03:57:13;;;;;;;4.17;1.90;;;4.00;99.90;;;;;;5012949;28;20337;-55
2021/04/17 03:59:39;;;;;;;6.80;2.50;;;4.00;99.90;;;;;;5017528;28;20234;-50
2021/04/17 04:02:06;;;;;;;2.30;1.90;;;3.90;99.90;;;;;;5012558;28;20203;-54
2021/04/17 04:04:32;;;;;;;3.40;1.70;;;3.90;99.90;;;;;;5015314;28;20210;-59
2021/04/17 04:06:58;;;;;;;4.43;2.23;;;3.90;99.90;;;;;;5010496;28;20452;-58
2021/04/17 04:09:25;;;;;;;3.10;2.07;;;3.90;99.90;;;;;;5015416;28;20692;-56
2021/04/17 04:11:51;;;;;;;2.17;1.97;;;3.90;99.90;;;;;;5005059;28;20217;-53
2021/04/17 04:14:17;;;;;;;6.13;3.00;;;3.90;99.90;;;;;;5016876;28;20208;-53
2021/04/17 04:16:43;;;;;;;2.40;1.73;;;3.80;99.90;;;;;;5014802;28;20610;-58
2021/04/17 04:19:10;;;;;;;4.47;2.47;;;3.80;99.90;;;;;;5017173;28;20211;-56
2021/04/17 04:21:36;;;;;;;3.63;2.33;;;3.80;99.90;;;;;;5015841;28;20214;-59
2021/04/17 04:24:02;;;;;;;6.40;2.30;;;3.80;99.90;;;;;;5017620;28;20433;-54
2021/04/17 04:26:29;;;;;;;3.80;2.23;;;3.80;99.90;;;;;;5009965;28;20215;-58
2021/04/17 04:28:55;;;;;;;2.47;2.20;;;3.80;99.90;;;;;;5013410;28;20932;-50
2021/04/17 04:31:21;;;;;;;6.10;3.37;;;3.80;99.90;;;;;;5018954;28;20338;-52
2021/04/17 04:33:47;;;;;;;4.73;3.50;;;3.80;99.90;;;;;;5018721;28;20656;-57
2021/04/17 04:36:14;;;;;;;3.43;2.50;;;3.90;99.90;;;;;;5017658;28;20640;-54
2021/04/17 04:38:40;;;;;;;5.73;2.77;;;3.90;99.90;;;;;;5015463;28;20257;-58
2021/04/17 04:41:06;;;;;;;6.13;2.37;;;3.90;99.90;;;;;;5009974;28;21322;-52
2021/04/17 04:43:33;;;;;;;2.40;2.20;;;3.90;99.90;;;;;;5016561;28;20603;-58
2021/04/17 04:45:59;;;;;;;8.40;2.80;;;3.90;99.90;;;;;;5011565;28;20204;-52
2021/04/17 04:48:25;;;;;;;3.43;2.30;;;3.90;99.90;;;;;;5022313;28;20203;-53
2021/04/17 04:50:51;;;;;;;3.10;2.30;;;3.90;99.90;;;;;;5008204;28;20226;-55
2021/04/17 04:53:20;;;;;;;3.83;2.07;;;4.00;99.90;;;;;;5022380;28;20305;-51
2021/04/17 04:55:46;;;;;;;7.20;2.20;;;4.00;99.90;;;;;;5013358;28;20285;-58
2021/04/17 04:58:12;;;;;;;6.20;2.20;;;4.00;99.90;;;;;;5014542;28;20214;-56
2021/04/17 05:00:38;;;;;;;4.83;2.23;;;4.00;99.90;;;;;;5008926;28;20581;-59
2021/04/17 05:03:05;;;;;;;3.20;2.20;;;4.00;99.90;;;;;;5018508;28;20220;-54
2021/04/17 05:05:31;;;;;;;3.67;2.20;;;4.10;99.90;;;;;;5022039;28;20203;-58
2021/04/17 05:07:57;;;;;;;2.30;2.10;;;4.10;99.90;;;;;;5009959;28;20200;-51
2021/04/17 05:10:25;;;;;;;3.10;2.00;;;4.10;99.90;;;;;;5017341;28;20566;-50
2021/04/17 05:12:51;;;;;;;5.57;2.10;;;4.10;99.90;;;;;;5005263;28;23540;-51
2021/04/17 05:15:18;;;;;;;5.00;2.00;;;4.20;99.90;;;;;;5022476;28;20687;-54
2021/04/17 05:17:44;;;;;;;3.80;2.40;;;4.20;99.90;;;;;;5008550;28;20204;-56
2021/04/17 05:20:11;;;;;;;3.67;2.33;;;4.20;99.90;;;;;;5022149;28;20214;-53
2021/04/17 05:22:37;;;;;;;2.97;2.60;;;4.30;99.90;;;;;;5018638;28;20226;-57
2021/04/17 05:25:04;;;;;;;7.37;2.73;;;4.30;99.90;;;;;;5012562;28;20309;-55
2021/04/17 05:27:31;;;;;;;4.23;2.20;;;4.40;99.90;;;;;;5019275;28;20239;-56
2021/04/17 05:29:57;;;;;;;6.87;2.27;;;4.40;99.90;;;;;;5005338;28;20291;-53
2021/04/17 05:32:24;;;;;;;4.37;2.13;;;4.50;99.90;;;;;;5013896;28;20258;-52
2021/04/17 05:34:50;;;;;;;4.33;2.63;;;4.50;99.90;;;;;;5012444;28;20272;-52
2021/04/17 05:37:16;;;;;;;5.70;2.07;;;4.50;99.90;;;;;;5021671;28;20203;-56
2021/04/17 05:39:42;;;;;;;2.53;2.23;;;4.60;99.90;;;;;;5010388;28;20228;-57
2021/04/17 05:42:09;;;;;;;4.27;2.03;;;4.60;99.90;;;;;;5012346;28;20253;-55
2021/04/17 05:44:36;;;;;;;2.77;2.13;;;4.70;99.90;;;;;;5007847;28;20208;-58
2021/04/17 05:47:02;;;;;;;3.67;2.27;;;4.70;99.90;;;;;;5015318;28;20208;-54
2021/04/17 05:49:28;;;;;;;4.17;2.60;;;4.70;99.90;;;;;;5018050;28;20278;-57
2021/04/17 05:51:54;;;;;;;2.47;1.70;;;4.80;99.90;;;;;;5002352;28;20197;-54
2021/04/17 05:54:20;;;;;;;2.83;2.23;;;4.80;99.90;;;;;;5022596;28;20196;-53
2021/04/17 05:56:47;;;;;;;5.00;2.23;;;4.80;99.90;;;;;;5008808;28;20213;-59
2021/04/17 05:59:13;;;;;;;6.80;2.10;;;4.80;99.90;;;;;;5010388;28;20208;-53
2021/04/17 06:01:40;;;;;;;4.93;2.90;;;4.90;99.90;;;;;;5021720;28;20200;-59
2021/04/17 06:04:06;;;;;;;5.37;2.17;;;4.90;99.90;;;;;;5015981;28;20220;-54
2021/04/17 06:06:32;;;;;;;4.43;2.13;;;5.00;99.90;;;;;;5021311;28;20287;-58
2021/04/17 06:08:58;;;;;;;3.13;2.03;;;5.00;99.90;;;;;;5020066;28;20899;-56
2021/04/17 06:11:24;;;;;;;5.17;2.23;;;5.10;99.90;;;;;;5018536;28;20314;-55
2021/04/17 06:13:51;;;;;;;3.67;2.50;;;5.10;99.90;;;;;;5003555;28;20282;-52
2021/04/17 06:16:18;;;;;;;5.10;2.63;;;5.10;99.90;;;;;;5013185;28;20238;-54
2021/04/17 06:18:45;;;;;;;2.63;2.07;;;5.20;99.90;;;;;;5017348;28;20196;-59
2021/04/17 06:21:11;;;;;;;4.77;2.27;;;5.20;99.90;;;;;;5020126;28;20224;-56
2021/04/17 06:23:38;;;;;;;5.10;2.70;;;5.30;99.90;;;;;;5023264;28;20228;-60
2021/04/17 06:26:04;;;;;;;4.17;2.37;;;5.30;99.90;;;;;;5016691;28;20208;-50
2021/04/17 06:28:31;;;;;;;4.37;2.57;;;5.40;99.90;;;;;;5019453;28;20678;-57
2021/04/17 06:30:58;;;;;;;4.03;2.23;;;5.40;99.90;;;;;;5010107;28;20223;-54
2021/04/17 06:33:24;;;;;;;6.27;2.77;;;5.50;99.90;;;;;;5025791;28;20200;-54
2021/04/17 06:35:51;;;;;;;6.13;2.20;;;5.50;99.90;;;;;;5007633;28;20196;-55
2021/04/17 06:38:17;;;;;;;5.93;2.53;;;5.50;99.90;;;;;;5021943;28;20208;-56
2021/04/17 06:40:44;;;;;;;6.20;2.43;;;5.60;99.90;;;;;;5016038;28;20214;-58
2021/04/17 06:43:12;;;;;;;3.43;2.10;;;5.60;99.90;;;;;;5019518;28;20222;-50
2021/04/17 06:45:39;;;;;;;4.10;2.43;;;5.70;99.90;;;;;;5021659;28;20622;-59
2021/04/17 06:48:06;;;;;;;3.20;2.43;;;5.70;99.90;;;;;;5014196;28;20203;-52
2021/04/17 06:50:34;;;;;;;5.13;2.70;;;5.80;99.90;;;;;;5022781;28;20227;-57
2021/04/17 06:53:03;;;;;;;5.77;2.27;;;5.80;99.90;;;;;;5019060;28;20204;-51
2021/04/17 06:55:29;;;;;;;7.80;2.20;;;5.80;99.90;;;;;;5025243;28;20223;-58
2021/04/17 06:57:56;;;;;;;3.67;2.43;;;5.90;99.90;;;;;;5011781;28;20204;-54
2021/04/17 07:00:23;;;;;;;3.27;2.00;;;5.90;99.90;;;;;;5024556;28;20216;-51
2021/04/17 07:02:50;;;;;;;2.60;2.17;;;6.00;99.90;;;;;;5010351;28;20200;-50
2021/04/17 07:05:16;;;;;;;3.00;2.07;;;6.00;99.90;;;;;;5025486;28;20198;-52
2021/04/17 07:07:42;;;;;;;3.93;2.50;;;6.10;99.90;;;;;;5015733;28;20211;-59
2021/04/17 07:10:11;;;;;;;5.13;2.53;;;6.20;99.90;;;;;;5024108;28;20223;-52
2021/04/17 07:12:37;;;;;;;6.03;2.47;;;6.20;99.90;;;;;;5016129;28;20206;-60
2021/04/17 07:15:06;;;;;;;5.00;2.50;;;6.30;99.90;;;;;;5020504;28;20915;-55
2021/04/17 07:17:34;;;;;;;4.40;2.10;;;6.40;99.90;;;;;;5020966;28;20206;-62
2021/04/17 07:20:01;;;;;;;4.03;2.20;;;6.50;99.90;;;;;;5018006;28;20352;-56
2021/04/17 07:22:28;;;;;;;6.23;2.57;;;6.60;99.90;;;;;;5020060;28;20661;-55
2021/04/17 07:24:56;;;;;;;4.20;2.33;;;6.60;99.90;;;;;;5020990;28;20881;-54
2021/04/17 07:27:35;;;;;;;2.30;2.10;;;6.60;99.90;;;;;;5014779;28;20247;-54
2021/04/17 07:30:08;;;;;;;5.33;2.23;;;6.60;99.90;;;;;;5017420;28;20308;-55
2021/04/17 07:32:35;;;;;;;4.40;2.47;;;6.60;99.90;;;;;;5021289;28;20234;-59
2021/04/17 07:35:09;;;;;;;4.07;2.40;;;6.70;99.90;;;;;;5017173;28;20968;-57
2021/04/17 07:37:36;;;;;;;4.47;2.70;;;6.70;99.90;;;;;;5018264;28;20204;-59
2021/04/17 07:40:20;;;;;;;2.63;2.33;;;6.80;99.90;;;;;;5020698;28;20212;-52
2021/04/17 07:42:50;;;;;;;7.43;2.77;;;6.80;99.90;;;;;;5015365;28;20621;-59
2021/04/17 07:45:23;;;;;;;2.77;2.20;;;6.90;99.90;;;;;;5019978;28;20269;-49
2021/04/17 07:47:51;;;;;;;6.40;2.27;;;7.00;99.90;;;;;;5020988;28;20914;-53
2021/04/17 07:50:18;;;;;;;5.07;2.50;;;7.10;99.90;;;;;;5015473;28;20215;-52
2021/04/17 07:52:45;;;;;;;4.93;2.40;;;7.20;99.90;;;;;;5016267;28;20197;-57
2021/04/17 07:55:13;;;;;;;6.13;2.50;;;7.30;99.90;;;;;;5022187;28;20587;-49
2021/04/17 07:57:41;;;;;;;4.67;2.30;;;7.30;99.90;;;;;;5012547;28;20204;-55
2021/04/17 08:00:10;;;;;;;3.43;2.17;;;7.40;99.90;;;;;;5015643;28;20212;-51
2021/04/17 08:02:38;;;;;;;3.87;1.93;;;7.50;99.90;;;;;;5020773;28;20291;-56
2021/04/17 08:05:06;;;;;;;6.60;2.00;;;7.70;99.90;;;;;;5022680;28;20289;-50
2021/04/17 08:07:34;;;;;;;2.17;1.67;;;7.90;99.90;;;;;;5016904;28;20254;-58
2021/04/17 08:10:01;;;;;;;6.27;2.43;;;8.10;99.90;;;;;;5017006;28;20215;-54
2021/04/17 08:12:27;;;;;;;4.27;2.20;;;8.20;99.90;;;;;;5023984;28;20565;-52
2021/04/17 08:14:54;;;;;;;3.33;2.00;;;8.50;99.90;;;;;;5010206;28;20208;-51
2021/04/17 08:17:22;;;;;;;3.20;2.17;;;8.60;99.90;;;;;;5023760;28;20207;-50
2021/04/17 08:19:48;;;;;;;3.47;2.20;;;8.70;99.90;;;;;;5019808;28;20212;-51
2021/04/17 08:22:15;;;;;;;4.90;2.20;;;8.90;99.90;;;;;;5015601;28;20223;-50
2021/04/17 08:24:42;;;;;;;4.43;2.03;;;8.80;99.90;;;;;;5009707;28;20193;-55
2021/04/17 08:27:08;;;;;;;3.03;1.77;;;8.80;99.90;;;;;;5021872;28;20218;-47
2021/04/17 08:29:49;;;;;;;2.33;2.03;;;8.90;99.90;;;;;;5013584;28;20334;-55
2021/04/17 08:32:36;;;;;;;3.00;2.33;;;8.90;99.90;;;;;;5016009;28;20199;-53
2021/04/17 08:35:10;;;;;;;1.97;1.63;;;8.90;99.90;;;;;;5020961;28;20377;-48
2021/04/17 08:38:08;;;;;;;4.13;1.60;;;9.00;99.90;;;;;;5014375;28;20278;-58
2021/04/17 08:40:43;;;;;;;2.97;1.60;;;9.10;99.30;;;;;;5010486;28;20689;-54
2021/04/17 08:43:33;;;;;;;4.87;1.87;;;9.10;99.80;;;;;;5017625;28;20250;-51
2021/04/17 08:46:03;;;;;;;1.90;1.50;;;9.30;99.30;;;;;;5007204;28;20372;-51
2021/04/17 08:48:47;;;;;;;4.57;1.30;;;9.40;99.10;;;;;;5022239;28;20204;-57
2021/04/17 08:51:38;;;;;;;3.00;1.83;;;9.50;98.80;;;;;;5022562;28;20261;-53
2021/04/17 08:54:19;;;;;;;3.53;2.00;;;9.80;98.90;;;;;;5010809;28;20363;-50
2021/04/17 08:56:53;;;;;;;5.30;1.70;;;9.90;98.10;;;;;;5014410;28;20192;-55
2021/04/17 08:59:21;;;;;;;2.07;1.70;;;9.90;98.70;;;;;;5022309;28;20665;-51
2021/04/17 09:01:49;;;;;;;4.87;1.97;;;10.00;98.20;;;;;;5005313;28;20208;-52
2021/04/17 09:04:15;;;;;;;5.00;1.97;;;10.00;97.80;;;;;;5018029;28;20223;-56
2021/04/17 09:06:44;;;;;;;2.80;1.70;;;10.00;98.30;;;;;;5017779;28;20214;-50
2021/04/17 09:09:33;;;;;;;4.65;1.90;;;10.00;96.80;;;;;;5008376;28;20447;-57
2021/04/17 09:12:17;;;;;;;2.17;1.60;;;10.10;96.40;;;;;;5014034;28;20568;-55
2021/04/17 09:14:51;;;;;;;3.20;1.93;;;10.20;96.50;;;;;;5023011;28;20237;-45
2021/04/17 09:17:37;;;;;;;2.87;1.73;;;10.50;96.90;;;;;;5008717;28;20289;-51
2021/04/17 09:20:05;;;;;;;5.60;1.80;;;10.80;95.50;;;;;;5018509;28;20224;-55
2021/04/17 09:22:42;;;;;;;4.07;1.93;;;10.80;96.00;;;;;;5008464;28;20501;-56
2021/04/17 09:25:11;;;;;;;3.53;1.60;;;10.70;96.00;;;;;;5003506;28;20207;-53
2021/04/17 09:27:39;;;;;;;3.17;1.70;;;10.80;96.10;;;;;;5015531;28;20282;-54
2021/04/17 09:30:08;;;;;;;2.30;1.70;;;10.80;94.80;;;;;;5020629;28;20337;-47
2021/04/17 09:32:35;;;;;;;2.17;1.40;;;11.00;94.00;;;;;;5003460;28;20211;-56
2021/04/17 09:35:11;;;;;;;3.90;1.53;;;11.20;92.80;;;;;;5023177;28;20207;-47
2021/04/17 09:37:37;;;;;;;2.20;1.27;;;11.20;91.20;;;;;;5013892;28;20199;-47
2021/04/17 09:40:05;;;;;;;4.37;1.43;;;11.20;90.30;;;;;;5014087;28;20220;-47
2021/04/17 09:42:36;;;;;;;2.20;1.17;;;11.10;90.50;;;;;;5019134;28;20295;-56
2021/04/17 09:45:04;;;;;;;3.73;1.80;;;11.10;89.50;;;;;;5019903;28;20262;-52
2021/04/17 09:47:30;;;;;;;2.37;1.43;;;11.00;89.90;;;;;;5014606;28;20689;-56
2021/04/17 09:49:56;;;;;;;1.97;1.13;;;11.00;90.20;;;;;;5020923;28;20226;-51
2021/04/17 09:52:25;;;;;;;3.53;2.00;;;10.90;90.10;;;;;;5024855;28;20285;-55
2021/04/17 09:54:57;;;;;;;3.03;1.40;;;11.00;90.20;;;;;;5008341;28;20940;-51
2021/04/17 09:57:23;;;;;;;1.30;1.20;;;11.00;90.10;;;;;;5013940;28;20306;-55
2021/04/17 09:59:55;;;;;;;1.60;1.47;;;11.00;91.10;;;;;;5023390;28;20220;-54
2021/04/17 10:02:22;;;;;;;3.63;1.27;;;11.20;90.40;;;;;;5018509;28;20650;-52
2021/04/17 10:04:54;;;;;;;3.53;1.60;;;11.10;90.60;;;;;;5015139;28;20211;-47
2021/04/17 10:07:20;;;;;;;1.87;1.00;;;11.10;90.00;;;;;;5023986;28;20204;-51
2021/04/17 10:10:00;;;;;;;1.83;1.43;;;11.20;90.60;;;;;;5019027;28;20223;-49
2021/04/17 10:12:26;;;;;;;1.50;1.30;;;11.30;88.70;;;;;;5012780;28;20210;-55
2021/04/17 10:14:53;;;;;;;2.87;1.30;;;11.20;90.20;;;;;;5021760;28;20204;-48
2021/04/17 10:17:20;;;;;;;1.70;1.10;;;11.40;89.70;;;;;;5019821;28;20230;-54
2021/04/17 10:19:46;;;;;;;2.77;1.50;;;11.60;89.10;;;;;;5012960;28;20232;-51
2021/04/17 10:22:13;;;;;;;3.13;1.40;;;11.70;87.40;;;;;;5025576;28;20214;-48
2021/04/17 10:24:41;;;;;;;1.20;1.00;;;11.80;86.10;;;;;;5015095;28;20929;-47
2021/04/17 10:27:10;;;;;;;1.57;1.13;;;11.80;86.00;;;;;;5014119;28;20243;-48
2021/04/17 10:29:40;;;;;;;1.40;1.10;;;11.70;85.90;;;;;;5016753;28;20207;-48
2021/04/17 10:32:11;;;;;;;3.03;1.07;;;11.70;84.00;;;;;;5021884;28;20264;-49
2021/04/17 10:34:38;;;;;;;1.60;1.10;;;11.70;83.30;;;;;;5011109;28;20198;-50
2021/04/17 10:37:07;;;;;;;2.23;1.10;;;11.80;83.80;;;;;;5020866;28;20219;-48
2021/04/17 10:39:34;;;;;;;1.50;1.10;;;12.00;83.80;;;;;;5019089;28;20955;-48
2021/04/17 10:42:07;;;;;;;2.47;1.40;;;12.10;82.10;;;;;;5021101;28;20697;-52
2021/04/17 10:44:34;;;;;;;4.43;1.77;;;12.10;80.10;;;;;;4997292;28;20216;-51
2021/04/17 10:47:02;;;;;;;2.87;1.27;;;12.20;81.20;;;;;;5015975;28;20590;-46
2021/04/17 10:49:32;;;;;;;4.27;1.23;;;12.30;79.00;;;;;;5013005;28;20208;-50
2021/04/17 10:52:00;;;;;;;3.93;1.23;;;12.30;77.80;;;;;;5018939;28;20230;-46
2021/04/17 10:54:27;;;;;;;1.20;0.90;;;12.20;76.50;;;;;;5017721;28;20740;-54
2021/04/17 10:57:03;;;;;;;1.60;1.40;;;12.30;79.60;;;;;;5019665;28;20644;-47
2021/04/17 10:59:54;;;;;;;1.60;1.03;;;12.60;76.20;;;;;;5004582;28;20213;-49
2021/04/17 11:02:25;;;;;;;6.73;1.00;;;12.60;75.00;;;;;;5018793;28;20236;-54
2021/04/17 11:04:53;;;;;;;1.77;1.10;;;12.50;74.40;;;;;;5006995;28;20935;-47
2021/04/17 11:07:19;;;;;;;1.20;1.00;;;12.50;76.90;;;;;;5014515;28;20212;-51
2021/04/17 11:09:47;;;;;;;3.90;1.03;;;12.70;77.50;;;;;;5020804;28;20455;-51
2021/04/17 11:12:23;;;;;;;5.10;1.13;;;12.90;78.50;;;;;;5026073;28;20204;-53
2021/04/17 11:14:49;;;;;;;1.50;1.10;;;13.10;76.00;;;;;;5006382;28;20266;-51
2021/04/17 11:17:16;;;;;;;2.80;0.80;;;13.20;76.90;;;;;;5019134;28;20589;-53
2021/04/17 11:19:43;;;;;;;1.67;1.00;;;13.20;73.80;;;;;;5023360;28;20212;-46
2021/04/17 11:22:12;;;;;;;2.30;1.50;;;13.30;72.90;;;;;;5006569;28;20207;-51
2021/04/17 11:24:39;;;;;;;1.43;1.03;;;13.40;72.20;;;;;;5024902;28;20247;-52
2021/04/17 11:27:05;;;;;;;1.50;1.07;;;13.40;70.10;;;;;;5017367;28;20208;-47
2021/04/17 11:29:32;;;;;;;2.03;1.10;;;13.40;70.50;;;;;;5011821;28;20220;-50
2021/04/17 11:31:58;;;;;;;4.23;1.13;;;13.50;70.60;;;;;;5010211;28;20192;-48
2021/04/17 11:34:24;;;;;;;3.17;1.20;;;13.50;69.30;;;;;;5024255;28;20554;-48
2021/04/17 11:36:50;;;;;;;1.67;1.20;;;13.40;67.80;;;;;;5010469;28;20208;-52
2021/04/17 11:39:18;;;;;;;3.97;1.47;;;13.10;68.40;;;;;;5020835;28;20207;-46
2021/04/17 11:41:44;;;;;;;4.00;1.33;;;13.20;69.50;;;;;;5020089;28;20705;-54
2021/04/17 11:44:10;;;;;;;3.93;1.10;;;13.30;70.70;;;;;;5017030;28;20230;-50
2021/04/17 11:46:37;;;;;;;2.13;1.10;;;13.40;69.20;;;;;;5010830;28;20208;-51
2021/04/17 11:49:04;;;;;;;1.73;1.23;;;13.50;68.40;;;;;;5014640;28;20207;-48
2021/04/17 11:51:30;;;;;;;8.03;1.80;;;13.50;69.30;;;;;;5017553;28;20220;-46
2021/04/17 11:53:57;;;;;;;3.73;1.40;;;13.70;69.40;;;;;;5010411;28;20197;-51
2021/04/17 11:56:24;;;;;;;4.20;1.10;;;13.70;69.10;;;;;;5024515;28;20288;-48
2021/04/17 11:58:50;;;;;;;3.37;1.80;;;13.60;67.90;;;;;;5017189;28;20559;-52
2021/04/17 12:01:18;;;;;;;5.03;1.47;;;13.60;71.50;;;;;;5014053;28;20231;-46
2021/04/17 12:03:44;;;;;;;4.70;1.37;;;13.70;71.30;;;;;;5022844;28;20211;-53
2021/04/17 12:06:12;;;;;;;2.90;1.30;;;13.90;71.70;;;;;;5018808;28;20210;-51
2021/04/17 12:08:38;;;;;;;2.70;1.50;;;14.00;67.60;;;;;;5017135;28;20291;-51
2021/04/17 12:11:05;;;;;;;1.23;1.10;;;13.90;67.80;;;;;;5012939;28;21020;-48
2021/04/17 12:13:33;;;;;;;2.57;1.77;;;13.80;69.10;;;;;;5020090;28;20199;-48
2021/04/17 12:15:59;;;;;;;7.17;1.50;;;13.90;70.60;;;;;;5003319;28;20199;-50
2021/04/17 12:18:25;;;;;;;3.00;1.53;;;14.10;67.60;;;;;;5027146;28;20685;-52
2021/04/17 12:20:51;;;;;;;6.53;1.30;;;13.90;66.80;;;;;;5016034;28;20227;-51
2021/04/17 12:23:17;;;;;;;2.70;0.97;;;13.70;66.50;;;;;;5012818;28;20724;-51
2021/04/17 12:25:44;;;;;;;2.00;1.10;;;13.70;67.80;;;;;;5017428;28;20291;-50
2021/04/17 12:28:11;;;;;;;3.73;1.30;;;13.80;67.50;;;;;;5019539;28;20211;-49
2021/04/17 12:30:38;;;;;;;2.20;1.20;;;13.70;66.40;;;;;;5018673;28;20223;-54
2021/04/17 12:33:05;;;;;;;1.43;1.33;;;13.70;66.90;;;;;;5012097;28;20985;-49
2021/04/17 12:35:31;;;;;;;2.83;1.10;;;13.70;66.10;;;;;;5023261;28;20547;-47
2021/04/17 12:37:57;;;;;;;3.43;1.30;;;13.70;67.90;;;;;;5014840;28;20204;-49
2021/04/17 12:40:23;;;;;;;2.70;1.40;;;13.90;67.90;;;;;;5018012;28;20228;-47
2021/04/17 12:42:49;;;;;;;4.43;1.53;;;14.00;68.30;;;;;;5020705;28;20305;-52
2021/04/17 12:45:16;;;;;;;2.87;1.20;;;14.10;67.70;;;;;;5017913;28;20517;-47
2021/04/17 12:47:44;;;;;;;3.23;1.40;;;14.00;66.00;;;;;;5009169;28;20704;-49
2021/04/17 12:50:11;;;;;;;2.07;1.30;;;13.80;66.90;;;;;;5014989;28;20979;-49
2021/04/17 12:52:37;;;;;;;3.40;1.10;;;13.90;66.80;;;;;;5019064;28;20211;-52
2021/04/17 12:55:04;;;;;;;2.53;1.30;;;13.90;66.80;;;;;;5003728;28;20200;-48
2021/04/17 12:57:30;;;;;;;3.33;1.30;;;14.10;66.60;;;;;;5023196;28;20198;-49